sensor_id;sensor_type;location;lat;lon;timestamp;temperature;humidity
56771;DHT22;42641;59.794;17.616;2022-12-13T00:00:18;-2.30;99.90
56771;DHT22;42641;59.794;17.616;2022-12-13T00:02:45;-2.40;99.90
56771;DHT22;42641;59.794;17.616;2022-12-13T00:05:12;-2.30;99.90
56771;DHT22;42641;59.794;17.616;2022-12-13T00:07:39;-2.40;99.90
56771;DHT22;42641;59.794;17.616;2022-12-13T00:10:05;-2.40;99.90
56771;DHT22;42641;59.794;17.616;2022-12-13T00:12:32;-2.50;99.90
56771;DHT22;42641;59.794;17.616;2022-12-13T00:14:58;-2.40;99.90
56771;DHT22;42641;59.794;17.616;2022-12-13T00:17:25;-2.50;99.90
56771;DHT22;42641;59.794;17.616;2022-12-13T00:19:51;-2.50;99.90
56771;DHT22;42641;59.794;17.616;2022-12-13T00:22:17;-2.50;99.90
56771;DHT22;42641;59.794;17.616;2022-12-13T00:24:44;-2.50;99.90
56771;DHT22;42641;59.794;17.616;2022-12-13T00:27:10;-2.50;99.90
56771;DHT22;42641;59.794;17.616;2022-12-13T00:29:37;-2.50;99.90
56771;DHT22;42641;59.794;17.616;2022-12-13T00:32:03;-2.60;99.90
56771;DHT22;42641;59.794;17.616;2022-12-13T00:34:30;-2.60;99.90
56771;DHT22;42641;59.794;17.616;2022-12-13T00:36:56;-2.60;99.90
56771;DHT22;42641;59.794;17.616;2022-12-13T00:39:26;-2.60;99.90
56771;DHT22;42641;59.794;17.616;2022-12-13T00:41:53;-2.60;99.90
56771;DHT22;42641;59.794;17.616;2022-12-13T00:44:19;-2.60;99.90
56771;DHT22;42641;59.794;17.616;2022-12-13T00:46:45;-2.60;99.90
56771;DHT22;42641;59.794;17.616;2022-12-13T00:49:12;-2.50;99.90
56771;DHT22;42641;59.794;17.616;2022-12-13T00:51:40;-2.50;99.90
56771;DHT22;42641;59.794;17.616;2022-12-13T00:54:07;-2.60;99.90
56771;DHT22;42641;59.794;17.616;2022-12-13T00:56:33;-2.70;99.90
56771;DHT22;42641;59.794;17.616;2022-12-13T00:58:59;-2.80;99.90
56771;DHT22;42641;59.794;17.616;2022-12-13T01:01:29;-2.90;99.90
56771;DHT22;42641;59.794;17.616;2022-12-13T01:03:58;-3.10;99.90
56771;DHT22;42641;59.794;17.616;2022-12-13T01:08:56;-3.30;99.90
56771;DHT22;42641;59.794;17.616;2022-12-13T01:11:25;-3.40;99.90
56771;DHT22;42641;59.794;17.616;2022-12-13T01:13:51;-3.50;99.90
56771;DHT22;42641;59.794;17.616;2022-12-13T01:16:18;-3.70;99.90
56771;DHT22;42641;59.794;17.616;2022-12-13T01:18:44;-3.70;99.90
56771;DHT22;42641;59.794;17.616;2022-12-13T01:21:13;-3.80;99.90
56771;DHT22;42641;59.794;17.616;2022-12-13T01:23:40;-3.80;99.90
56771;DHT22;42641;59.794;17.616;2022-12-13T01:26:16;-3.80;99.90
56771;DHT22;42641;59.794;17.616;2022-12-13T01:28:43;-3.90;99.90
56771;DHT22;42641;59.794;17.616;2022-12-13T01:31:13;-3.90;99.90
56771;DHT22;42641;59.794;17.616;2022-12-13T01:33:41;-3.90;99.90
56771;DHT22;42641;59.794;17.616;2022-12-13T01:36:10;-4.00;99.90
56771;DHT22;42641;59.794;17.616;2022-12-13T01:38:36;-4.10;99.90
56771;DHT22;42641;59.794;17.616;2022-12-13T01:41:03;-4.10;99.90
56771;DHT22;42641;59.794;17.616;2022-12-13T01:46:03;-4.10;99.90
56771;DHT22;42641;59.794;17.616;2022-12-13T01:48:34;-4.20;99.90
56771;DHT22;42641;59.794;17.616;2022-12-13T01:51:03;-4.20;99.90
56771;DHT22;42641;59.794;17.616;2022-12-13T01:53:35;-4.20;99.90
56771;DHT22;42641;59.794;17.616;2022-12-13T01:56:18;-4.20;99.90
56771;DHT22;42641;59.794;17.616;2022-12-13T01:58:47;-4.30;99.90
56771;DHT22;42641;59.794;17.616;2022-12-13T02:01:15;-4.40;99.90
56771;DHT22;42641;59.794;17.616;2022-12-13T02:03:42;-4.40;99.90
56771;DHT22;42641;59.794;17.616;2022-12-13T02:06:32;-4.50;99.90
56771;DHT22;42641;59.794;17.616;2022-12-13T02:08:57;-4.60;99.90
56771;DHT22;42641;59.794;17.616;2022-12-13T02:11:25;-4.60;99.90
56771;DHT22;42641;59.794;17.616;2022-12-13T02:13:52;-4.60;99.90
56771;DHT22;42641;59.794;17.616;2022-12-13T02:16:37;-4.70;99.90
56771;DHT22;42641;59.794;17.616;2022-12-13T02:27:42;-4.80;99.90
56771;DHT22;42641;59.794;17.616;2022-12-13T02:33:00;-4.80;99.90
56771;DHT22;42641;59.794;17.616;2022-12-13T02:36:07;-4.80;99.90
56771;DHT22;42641;59.794;17.616;2022-12-13T02:42:04;-4.90;99.90
56771;DHT22;42641;59.794;17.616;2022-12-13T02:44:42;-4.90;99.90
56771;DHT22;42641;59.794;17.616;2022-12-13T02:47:14;-4.90;99.90
56771;DHT22;42641;59.794;17.616;2022-12-13T02:49:47;-4.80;99.90
56771;DHT22;42641;59.794;17.616;2022-12-13T02:52:17;-4.90;99.90
56771;DHT22;42641;59.794;17.616;2022-12-13T02:54:46;-4.90;99.90
56771;DHT22;42641;59.794;17.616;2022-12-13T02:57:42;-5.00;99.90
56771;DHT22;42641;59.794;17.616;2022-12-13T03:00:16;-5.00;99.90
56771;DHT22;42641;59.794;17.616;2022-12-13T03:03:01;-5.00;99.90
56771;DHT22;42641;59.794;17.616;2022-12-13T03:05:35;-5.00;99.90
56771;DHT22;42641;59.794;17.616;2022-12-13T03:08:29;-5.00;99.90
56771;DHT22;42641;59.794;17.616;2022-12-13T03:11:18;-5.10;99.90
56771;DHT22;42641;59.794;17.616;2022-12-13T03:13:56;-5.10;99.90
56771;DHT22;42641;59.794;17.616;2022-12-13T03:16:26;-5.10;99.90
56771;DHT22;42641;59.794;17.616;2022-12-13T03:18:57;-5.20;99.90
56771;DHT22;42641;59.794;17.616;2022-12-13T03:21:25;-5.20;99.90
56771;DHT22;42641;59.794;17.616;2022-12-13T03:23:51;-5.20;99.90
56771;DHT22;42641;59.794;17.616;2022-12-13T03:26:20;-5.20;99.90
56771;DHT22;42641;59.794;17.616;2022-12-13T03:28:48;-5.30;99.90
56771;DHT22;42641;59.794;17.616;2022-12-13T03:31:15;-5.20;99.90
56771;DHT22;42641;59.794;17.616;2022-12-13T03:33:41;-5.20;99.90
56771;DHT22;42641;59.794;17.616;2022-12-13T03:36:08;-5.20;99.90
56771;DHT22;42641;59.794;17.616;2022-12-13T03:38:35;-5.20;99.90
56771;DHT22;42641;59.794;17.616;2022-12-13T03:41:06;-5.30;99.90
56771;DHT22;42641;59.794;17.616;2022-12-13T03:43:34;-5.30;99.90
56771;DHT22;42641;59.794;17.616;2022-12-13T03:46:00;-5.30;99.90
56771;DHT22;42641;59.794;17.616;2022-12-13T03:48:27;-5.40;99.90
56771;DHT22;42641;59.794;17.616;2022-12-13T03:50:54;-5.40;99.90
56771;DHT22;42641;59.794;17.616;2022-12-13T03:53:22;-5.40;99.90
56771;DHT22;42641;59.794;17.616;2022-12-13T03:55:49;-5.40;99.90
56771;DHT22;42641;59.794;17.616;2022-12-13T03:58:15;-5.50;99.90
56771;DHT22;42641;59.794;17.616;2022-12-13T04:00:43;-5.50;99.90
56771;DHT22;42641;59.794;17.616;2022-12-13T04:03:09;-5.50;99.90
56771;DHT22;42641;59.794;17.616;2022-12-13T04:05:36;-5.50;99.90
56771;DHT22;42641;59.794;17.616;2022-12-13T04:08:03;-5.50;99.90
56771;DHT22;42641;59.794;17.616;2022-12-13T04:10:29;-5.60;99.90
56771;DHT22;42641;59.794;17.616;2022-12-13T04:12:55;-5.60;99.90
56771;DHT22;42641;59.794;17.616;2022-12-13T04:15:41;-5.60;99.90
56771;DHT22;42641;59.794;17.616;2022-12-13T04:18:15;-5.70;99.90
56771;DHT22;42641;59.794;17.616;2022-12-13T04:20:42;-5.70;99.90
56771;DHT22;42641;59.794;17.616;2022-12-13T04:23:08;-5.70;99.90
56771;DHT22;42641;59.794;17.616;2022-12-13T04:25:36;-5.70;99.90
56771;DHT22;42641;59.794;17.616;2022-12-13T04:28:03;-5.80;99.90
56771;DHT22;42641;59.794;17.616;2022-12-13T04:30:29;-5.80;99.90
56771;DHT22;42641;59.794;17.616;2022-12-13T04:32:55;-5.80;99.90
56771;DHT22;42641;59.794;17.616;2022-12-13T04:35:22;-5.80;99.90
56771;DHT22;42641;59.794;17.616;2022-12-13T04:37:48;-5.80;99.90
56771;DHT22;42641;59.794;17.616;2022-12-13T04:40:15;-5.80;99.90
56771;DHT22;42641;59.794;17.616;2022-12-13T04:42:41;-5.80;99.90
56771;DHT22;42641;59.794;17.616;2022-12-13T04:45:12;-5.80;99.90
56771;DHT22;42641;59.794;17.616;2022-12-13T04:47:40;-5.80;99.90
56771;DHT22;42641;59.794;17.616;2022-12-13T04:50:06;-5.80;99.90
56771;DHT22;42641;59.794;17.616;2022-12-13T04:52:33;-5.80;99.90
56771;DHT22;42641;59.794;17.616;2022-12-13T04:54:59;-5.80;99.90
56771;DHT22;42641;59.794;17.616;2022-12-13T04:57:26;-5.80;99.90
56771;DHT22;42641;59.794;17.616;2022-12-13T04:59:52;-5.80;99.90
56771;DHT22;42641;59.794;17.616;2022-12-13T05:02:18;-5.90;99.90
56771;DHT22;42641;59.794;17.616;2022-12-13T05:04:45;-5.90;99.90
56771;DHT22;42641;59.794;17.616;2022-12-13T05:07:11;-5.90;99.90
56771;DHT22;42641;59.794;17.616;2022-12-13T05:09:38;-5.90;99.90
56771;DHT22;42641;59.794;17.616;2022-12-13T05:12:04;-5.80;99.90
56771;DHT22;42641;59.794;17.616;2022-12-13T05:14:31;-5.80;99.90
56771;DHT22;42641;59.794;17.616;2022-12-13T05:16:59;-5.90;99.90
56771;DHT22;42641;59.794;17.616;2022-12-13T05:19:25;-5.90;99.90
56771;DHT22;42641;59.794;17.616;2022-12-13T05:21:52;-5.90;99.90
56771;DHT22;42641;59.794;17.616;2022-12-13T05:24:18;-5.90;99.90
56771;DHT22;42641;59.794;17.616;2022-12-13T05:26:45;-5.90;99.90
56771;DHT22;42641;59.794;17.616;2022-12-13T05:29:11;-5.90;99.90
56771;DHT22;42641;59.794;17.616;2022-12-13T05:31:38;-5.90;99.90
56771;DHT22;42641;59.794;17.616;2022-12-13T05:34:04;-5.90;99.90
56771;DHT22;42641;59.794;17.616;2022-12-13T05:36:31;-5.90;99.90
56771;DHT22;42641;59.794;17.616;2022-12-13T05:38:57;-5.90;99.90
56771;DHT22;42641;59.794;17.616;2022-12-13T05:41:28;-5.90;99.90
56771;DHT22;42641;59.794;17.616;2022-12-13T05:43:54;-5.90;99.90
56771;DHT22;42641;59.794;17.616;2022-12-13T05:46:21;-5.90;99.90
56771;DHT22;42641;59.794;17.616;2022-12-13T05:48:47;-5.80;99.90
56771;DHT22;42641;59.794;17.616;2022-12-13T05:51:13;-5.80;99.90
56771;DHT22;42641;59.794;17.616;2022-12-13T05:53:41;-5.90;99.90
56771;DHT22;42641;59.794;17.616;2022-12-13T05:56:08;-5.90;99.90
56771;DHT22;42641;59.794;17.616;2022-12-13T05:58:36;-5.90;99.90
56771;DHT22;42641;59.794;17.616;2022-12-13T06:01:08;-5.90;99.90
56771;DHT22;42641;59.794;17.616;2022-12-13T06:03:34;-5.90;99.90
56771;DHT22;42641;59.794;17.616;2022-12-13T06:06:02;-5.90;99.90
56771;DHT22;42641;59.794;17.616;2022-12-13T06:08:29;-5.80;99.90
56771;DHT22;42641;59.794;17.616;2022-12-13T06:10:57;-5.80;99.90
56771;DHT22;42641;59.794;17.616;2022-12-13T06:13:24;-5.80;99.90
56771;DHT22;42641;59.794;17.616;2022-12-13T06:15:50;-5.80;99.90
56771;DHT22;42641;59.794;17.616;2022-12-13T06:18:17;-5.80;99.90
56771;DHT22;42641;59.794;17.616;2022-12-13T06:20:43;-5.80;99.90
56771;DHT22;42641;59.794;17.616;2022-12-13T06:23:11;-5.80;99.90
56771;DHT22;42641;59.794;17.616;2022-12-13T06:25:37;-5.80;99.90
56771;DHT22;42641;59.794;17.616;2022-12-13T06:28:04;-5.80;99.90
56771;DHT22;42641;59.794;17.616;2022-12-13T06:30:30;-5.80;99.90
56771;DHT22;42641;59.794;17.616;2022-12-13T06:32:57;-5.80;99.90
56771;DHT22;42641;59.794;17.616;2022-12-13T06:35:24;-5.70;99.90
56771;DHT22;42641;59.794;17.616;2022-12-13T06:37:51;-5.80;99.90
56771;DHT22;42641;59.794;17.616;2022-12-13T06:40:18;-5.80;99.90
56771;DHT22;42641;59.794;17.616;2022-12-13T06:42:44;-5.80;99.90
56771;DHT22;42641;59.794;17.616;2022-12-13T06:45:10;-5.80;99.90
56771;DHT22;42641;59.794;17.616;2022-12-13T06:47:37;-5.90;99.90
56771;DHT22;42641;59.794;17.616;2022-12-13T06:50:03;-5.80;99.90
56771;DHT22;42641;59.794;17.616;2022-12-13T06:52:30;-5.90;99.90
56771;DHT22;42641;59.794;17.616;2022-12-13T06:54:56;-5.90;99.90
56771;DHT22;42641;59.794;17.616;2022-12-13T06:57:23;-5.90;99.90
56771;DHT22;42641;59.794;17.616;2022-12-13T06:59:49;-5.90;99.90
56771;DHT22;42641;59.794;17.616;2022-12-13T07:02:15;-5.90;99.90
56771;DHT22;42641;59.794;17.616;2022-12-13T07:04:42;-5.90;99.90
56771;DHT22;42641;59.794;17.616;2022-12-13T07:07:08;-5.90;99.90
56771;DHT22;42641;59.794;17.616;2022-12-13T07:09:35;-5.90;99.90
56771;DHT22;42641;59.794;17.616;2022-12-13T07:12:01;-5.90;99.90
56771;DHT22;42641;59.794;17.616;2022-12-13T07:14:28;-5.90;99.90
56771;DHT22;42641;59.794;17.616;2022-12-13T07:16:54;-6.00;99.90
56771;DHT22;42641;59.794;17.616;2022-12-13T07:19:21;-6.00;99.90
56771;DHT22;42641;59.794;17.616;2022-12-13T07:21:47;-6.00;99.90
56771;DHT22;42641;59.794;17.616;2022-12-13T07:24:13;-6.00;99.90
56771;DHT22;42641;59.794;17.616;2022-12-13T07:26:39;-6.00;99.90
56771;DHT22;42641;59.794;17.616;2022-12-13T07:29:06;-6.00;99.90
56771;DHT22;42641;59.794;17.616;2022-12-13T07:31:34;-6.10;99.90
56771;DHT22;42641;59.794;17.616;2022-12-13T07:34:01;-6.10;99.90
56771;DHT22;42641;59.794;17.616;2022-12-13T07:36:27;-6.10;99.90
56771;DHT22;42641;59.794;17.616;2022-12-13T07:38:56;-6.00;99.90
56771;DHT22;42641;59.794;17.616;2022-12-13T07:41:23;-6.10;99.90
56771;DHT22;42641;59.794;17.616;2022-12-13T07:43:53;-6.10;99.90
56771;DHT22;42641;59.794;17.616;2022-12-13T07:46:20;-6.10;99.90
56771;DHT22;42641;59.794;17.616;2022-12-13T07:48:47;-6.10;99.90
56771;DHT22;42641;59.794;17.616;2022-12-13T07:51:13;-6.10;99.90
56771;DHT22;42641;59.794;17.616;2022-12-13T07:53:40;-6.10;99.90
56771;DHT22;42641;59.794;17.616;2022-12-13T07:56:09;-6.10;99.90
56771;DHT22;42641;59.794;17.616;2022-12-13T07:58:37;-6.10;99.90
56771;DHT22;42641;59.794;17.616;2022-12-13T08:01:06;-6.10;99.90
56771;DHT22;42641;59.794;17.616;2022-12-13T08:03:33;-6.10;99.90
56771;DHT22;42641;59.794;17.616;2022-12-13T08:08:32;-6.10;99.90
56771;DHT22;42641;59.794;17.616;2022-12-13T08:11:08;-6.20;99.90
56771;DHT22;42641;59.794;17.616;2022-12-13T08:13:35;-6.20;99.90
56771;DHT22;42641;59.794;17.616;2022-12-13T08:16:04;-6.20;99.90
56771;DHT22;42641;59.794;17.616;2022-12-13T08:18:32;-6.30;99.90
56771;DHT22;42641;59.794;17.616;2022-12-13T08:21:04;-6.30;99.90
56771;DHT22;42641;59.794;17.616;2022-12-13T08:23:32;-6.30;99.90
56771;DHT22;42641;59.794;17.616;2022-12-13T08:26:00;-6.30;99.90
56771;DHT22;42641;59.794;17.616;2022-12-13T08:28:27;-6.30;99.90
56771;DHT22;42641;59.794;17.616;2022-12-13T08:30:53;-6.30;99.90
56771;DHT22;42641;59.794;17.616;2022-12-13T08:33:20;-6.30;99.90
56771;DHT22;42641;59.794;17.616;2022-12-13T08:35:46;-6.30;99.90
56771;DHT22;42641;59.794;17.616;2022-12-13T08:38:13;-6.40;99.90
56771;DHT22;42641;59.794;17.616;2022-12-13T08:40:40;-6.40;99.90
56771;DHT22;42641;59.794;17.616;2022-12-13T08:43:06;-6.40;99.90
56771;DHT22;42641;59.794;17.616;2022-12-13T08:45:33;-6.40;99.90
56771;DHT22;42641;59.794;17.616;2022-12-13T08:48:00;-6.40;99.90
56771;DHT22;42641;59.794;17.616;2022-12-13T08:50:28;-6.50;99.90
56771;DHT22;42641;59.794;17.616;2022-12-13T08:52:54;-6.50;99.90
56771;DHT22;42641;59.794;17.616;2022-12-13T08:55:21;-6.50;99.90
56771;DHT22;42641;59.794;17.616;2022-12-13T08:57:47;-6.50;99.90
56771;DHT22;42641;59.794;17.616;2022-12-13T09:00:18;-6.60;99.90
56771;DHT22;42641;59.794;17.616;2022-12-13T09:02:44;-6.50;99.90
56771;DHT22;42641;59.794;17.616;2022-12-13T09:05:11;-6.50;99.90
56771;DHT22;42641;59.794;17.616;2022-12-13T09:07:38;-6.60;99.90
56771;DHT22;42641;59.794;17.616;2022-12-13T09:10:07;-6.50;99.90
56771;DHT22;42641;59.794;17.616;2022-12-13T09:12:33;-6.50;99.90
56771;DHT22;42641;59.794;17.616;2022-12-13T09:15:00;-6.50;99.90
56771;DHT22;42641;59.794;17.616;2022-12-13T09:17:29;-6.50;99.90
56771;DHT22;42641;59.794;17.616;2022-12-13T09:19:56;-6.50;99.90
56771;DHT22;42641;59.794;17.616;2022-12-13T09:22:23;-6.50;99.90
56771;DHT22;42641;59.794;17.616;2022-12-13T09:24:49;-6.50;99.90
56771;DHT22;42641;59.794;17.616;2022-12-13T09:27:15;-6.50;99.90
56771;DHT22;42641;59.794;17.616;2022-12-13T09:29:42;-6.50;99.90
56771;DHT22;42641;59.794;17.616;2022-12-13T09:32:08;-6.50;99.90
56771;DHT22;42641;59.794;17.616;2022-12-13T09:34:34;-6.50;99.90
56771;DHT22;42641;59.794;17.616;2022-12-13T09:37:01;-6.50;99.90
56771;DHT22;42641;59.794;17.616;2022-12-13T09:39:28;-6.50;99.90
56771;DHT22;42641;59.794;17.616;2022-12-13T09:41:56;-6.40;99.90
56771;DHT22;42641;59.794;17.616;2022-12-13T09:44:40;-6.40;99.90
56771;DHT22;42641;59.794;17.616;2022-12-13T09:47:14;-6.40;99.90
56771;DHT22;42641;59.794;17.616;2022-12-13T09:49:44;-6.50;99.90
56771;DHT22;42641;59.794;17.616;2022-12-13T09:52:14;-6.40;99.90
56771;DHT22;42641;59.794;17.616;2022-12-13T09:54:40;-6.40;99.90
56771;DHT22;42641;59.794;17.616;2022-12-13T09:57:20;-6.40;99.90
56771;DHT22;42641;59.794;17.616;2022-12-13T09:59:47;-6.40;99.90
56771;DHT22;42641;59.794;17.616;2022-12-13T10:02:21;-6.40;99.90
56771;DHT22;42641;59.794;17.616;2022-12-13T10:04:48;-6.40;99.90
56771;DHT22;42641;59.794;17.616;2022-12-13T10:07:23;-6.40;99.90
56771;DHT22;42641;59.794;17.616;2022-12-13T10:09:58;-6.40;99.90
56771;DHT22;42641;59.794;17.616;2022-12-13T10:12:27;-6.30;99.90
56771;DHT22;42641;59.794;17.616;2022-12-13T10:14:58;-6.30;99.90
56771;DHT22;42641;59.794;17.616;2022-12-13T10:17:30;-6.30;99.90
56771;DHT22;42641;59.794;17.616;2022-12-13T10:19:58;-6.30;99.90
56771;DHT22;42641;59.794;17.616;2022-12-13T10:22:24;-6.30;99.90
56771;DHT22;42641;59.794;17.616;2022-12-13T10:24:57;-6.30;99.90
56771;DHT22;42641;59.794;17.616;2022-12-13T10:27:40;-6.30;99.90
56771;DHT22;42641;59.794;17.616;2022-12-13T10:30:15;-6.30;99.90
56771;DHT22;42641;59.794;17.616;2022-12-13T10:32:46;-6.30;99.90
56771;DHT22;42641;59.794;17.616;2022-12-13T10:35:26;-6.30;99.90
56771;DHT22;42641;59.794;17.616;2022-12-13T10:37:54;-6.20;99.90
56771;DHT22;42641;59.794;17.616;2022-12-13T10:40:33;-6.20;99.90
56771;DHT22;42641;59.794;17.616;2022-12-13T10:45:33;-6.20;99.90
56771;DHT22;42641;59.794;17.616;2022-12-13T10:48:01;-6.20;99.90
56771;DHT22;42641;59.794;17.616;2022-12-13T10:50:29;-6.20;99.90
56771;DHT22;42641;59.794;17.616;2022-12-13T10:52:57;-6.20;99.90
56771;DHT22;42641;59.794;17.616;2022-12-13T10:55:33;-6.20;99.90
56771;DHT22;42641;59.794;17.616;2022-12-13T10:58:05;-6.30;99.90
56771;DHT22;42641;59.794;17.616;2022-12-13T11:00:41;-6.30;99.90
56771;DHT22;42641;59.794;17.616;2022-12-13T11:03:13;-6.30;99.90
56771;DHT22;42641;59.794;17.616;2022-12-13T11:06:02;-6.20;99.90
56771;DHT22;42641;59.794;17.616;2022-12-13T11:08:29;-6.30;99.90
56771;DHT22;42641;59.794;17.616;2022-12-13T11:11:04;-6.20;99.90
56771;DHT22;42641;59.794;17.616;2022-12-13T11:13:49;-6.20;99.90
56771;DHT22;42641;59.794;17.616;2022-12-13T11:16:24;-6.20;99.90
56771;DHT22;42641;59.794;17.616;2022-12-13T11:18:54;-6.20;99.90
56771;DHT22;42641;59.794;17.616;2022-12-13T11:21:26;-6.30;99.90
56771;DHT22;42641;59.794;17.616;2022-12-13T11:23:55;-6.30;99.90
56771;DHT22;42641;59.794;17.616;2022-12-13T11:26:24;-6.30;99.90
56771;DHT22;42641;59.794;17.616;2022-12-13T11:29:10;-6.30;99.90
56771;DHT22;42641;59.794;17.616;2022-12-13T11:32:05;-6.20;99.90
56771;DHT22;42641;59.794;17.616;2022-12-13T11:34:52;-6.20;99.90
56771;DHT22;42641;59.794;17.616;2022-12-13T11:40:16;-6.30;99.90
56771;DHT22;42641;59.794;17.616;2022-12-13T11:45:24;-6.30;99.90
56771;DHT22;42641;59.794;17.616;2022-12-13T11:51:00;-6.30;99.90
56771;DHT22;42641;59.794;17.616;2022-12-13T11:56:39;-6.40;99.90
56771;DHT22;42641;59.794;17.616;2022-12-13T11:59:35;-6.50;99.90
56771;DHT22;42641;59.794;17.616;2022-12-13T12:04:55;-6.50;99.90
56771;DHT22;42641;59.794;17.616;2022-12-13T12:07:35;-6.60;99.90
56771;DHT22;42641;59.794;17.616;2022-12-13T12:10:25;-6.70;99.90
56771;DHT22;42641;59.794;17.616;2022-12-13T12:13:02;-6.70;99.90
56771;DHT22;42641;59.794;17.616;2022-12-13T12:15:33;-6.70;99.90
56771;DHT22;42641;59.794;17.616;2022-12-13T12:18:00;-6.70;99.90
56771;DHT22;42641;59.794;17.616;2022-12-13T12:20:51;-6.70;99.90
56771;DHT22;42641;59.794;17.616;2022-12-13T12:26:52;-6.70;99.90
56771;DHT22;42641;59.794;17.616;2022-12-13T12:29:53;-6.70;99.90
56771;DHT22;42641;59.794;17.616;2022-12-13T12:35:15;-6.90;99.90
56771;DHT22;42641;59.794;17.616;2022-12-13T12:37:52;-6.90;99.90
56771;DHT22;42641;59.794;17.616;2022-12-13T12:54:31;-7.20;99.90
56771;DHT22;42641;59.794;17.616;2022-12-13T12:57:16;-7.20;99.90
56771;DHT22;42641;59.794;17.616;2022-12-13T13:02:32;-7.30;99.90
56771;DHT22;42641;59.794;17.616;2022-12-13T13:05:13;-7.40;99.90
56771;DHT22;42641;59.794;17.616;2022-12-13T13:07:48;-7.40;99.90
56771;DHT22;42641;59.794;17.616;2022-12-13T13:10:16;-7.40;99.90
56771;DHT22;42641;59.794;17.616;2022-12-13T13:12:43;-7.50;99.90
56771;DHT22;42641;59.794;17.616;2022-12-13T13:18:01;-7.50;99.90
56771;DHT22;42641;59.794;17.616;2022-12-13T13:20:27;-7.50;99.90
56771;DHT22;42641;59.794;17.616;2022-12-13T13:22:55;-7.60;99.90
56771;DHT22;42641;59.794;17.616;2022-12-13T13:25:28;-7.60;99.90
56771;DHT22;42641;59.794;17.616;2022-12-13T13:28:14;-7.70;99.90
56771;DHT22;42641;59.794;17.616;2022-12-13T13:31:03;-7.70;99.90
56771;DHT22;42641;59.794;17.616;2022-12-13T13:33:56;-7.70;99.90
56771;DHT22;42641;59.794;17.616;2022-12-13T13:39:18;-7.80;99.90
56771;DHT22;42641;59.794;17.616;2022-12-13T13:52:57;-8.00;99.90
56771;DHT22;42641;59.794;17.616;2022-12-13T14:29:57;-8.60;99.90
56771;DHT22;42641;59.794;17.616;2022-12-13T14:32:33;-8.70;99.90
56771;DHT22;42641;59.794;17.616;2022-12-13T14:35:02;-8.70;99.90
56771;DHT22;42641;59.794;17.616;2022-12-13T14:37:34;-8.70;99.90
56771;DHT22;42641;59.794;17.616;2022-12-13T14:40:28;-8.80;99.90
56771;DHT22;42641;59.794;17.616;2022-12-13T14:42:55;-8.80;99.90
56771;DHT22;42641;59.794;17.616;2022-12-13T14:47:52;-8.90;99.90
56771;DHT22;42641;59.794;17.616;2022-12-13T14:50:19;-8.90;99.90
56771;DHT22;42641;59.794;17.616;2022-12-13T14:52:47;-9.00;99.90
56771;DHT22;42641;59.794;17.616;2022-12-13T14:55:28;-9.00;99.90
56771;DHT22;42641;59.794;17.616;2022-12-13T14:58:00;-9.00;99.90
56771;DHT22;42641;59.794;17.616;2022-12-13T15:00:33;-9.00;99.90
56771;DHT22;42641;59.794;17.616;2022-12-13T15:03:02;-9.00;99.90
56771;DHT22;42641;59.794;17.616;2022-12-13T15:05:40;-9.10;99.90
56771;DHT22;42641;59.794;17.616;2022-12-13T15:08:08;-9.10;99.90
56771;DHT22;42641;59.794;17.616;2022-12-13T15:13:02;-9.10;99.90
56771;DHT22;42641;59.794;17.616;2022-12-13T15:18:18;-9.20;99.90
56771;DHT22;42641;59.794;17.616;2022-12-13T15:20:50;-9.20;99.90
56771;DHT22;42641;59.794;17.616;2022-12-13T15:23:29;-9.30;99.90
56771;DHT22;42641;59.794;17.616;2022-12-13T15:28:31;-9.30;99.90
56771;DHT22;42641;59.794;17.616;2022-12-13T15:31:00;-9.30;99.90
56771;DHT22;42641;59.794;17.616;2022-12-13T15:33:28;-9.40;99.90
56771;DHT22;42641;59.794;17.616;2022-12-13T15:38:40;-9.40;99.90
56771;DHT22;42641;59.794;17.616;2022-12-13T15:41:18;-9.40;99.90
56771;DHT22;42641;59.794;17.616;2022-12-13T15:43:48;-9.50;99.90
56771;DHT22;42641;59.794;17.616;2022-12-13T15:46:30;-9.50;99.90
56771;DHT22;42641;59.794;17.616;2022-12-13T15:48:59;-9.50;99.90
56771;DHT22;42641;59.794;17.616;2022-12-13T15:51:27;-9.50;99.90
56771;DHT22;42641;59.794;17.616;2022-12-13T15:56:54;-9.50;99.90
56771;DHT22;42641;59.794;17.616;2022-12-13T15:59:29;-9.50;99.90
56771;DHT22;42641;59.794;17.616;2022-12-13T16:01:56;-9.50;99.90
56771;DHT22;42641;59.794;17.616;2022-12-13T16:04:27;-9.60;99.90
56771;DHT22;42641;59.794;17.616;2022-12-13T16:06:55;-9.60;99.90
56771;DHT22;42641;59.794;17.616;2022-12-13T16:09:24;-9.60;99.90
56771;DHT22;42641;59.794;17.616;2022-12-13T16:11:56;-9.60;99.90
56771;DHT22;42641;59.794;17.616;2022-12-13T16:14:32;-9.60;99.90
56771;DHT22;42641;59.794;17.616;2022-12-13T16:17:22;-9.70;99.90
56771;DHT22;42641;59.794;17.616;2022-12-13T16:19:51;-9.70;99.90
56771;DHT22;42641;59.794;17.616;2022-12-13T16:22:18;-9.60;99.90
56771;DHT22;42641;59.794;17.616;2022-12-13T16:24:48;-9.60;99.90
56771;DHT22;42641;59.794;17.616;2022-12-13T16:27:14;-9.60;99.90
56771;DHT22;42641;59.794;17.616;2022-12-13T16:29:41;-9.70;99.90
56771;DHT22;42641;59.794;17.616;2022-12-13T16:32:07;-9.70;99.90
56771;DHT22;42641;59.794;17.616;2022-12-13T16:34:36;-9.70;99.90
56771;DHT22;42641;59.794;17.616;2022-12-13T16:37:03;-9.70;99.90
56771;DHT22;42641;59.794;17.616;2022-12-13T16:39:30;-9.70;99.90
56771;DHT22;42641;59.794;17.616;2022-12-13T16:41:57;-9.70;99.90
56771;DHT22;42641;59.794;17.616;2022-12-13T16:44:35;-9.70;99.90
56771;DHT22;42641;59.794;17.616;2022-12-13T16:47:06;-9.70;99.90
56771;DHT22;42641;59.794;17.616;2022-12-13T16:49:33;-9.70;99.90
56771;DHT22;42641;59.794;17.616;2022-12-13T16:51:59;-9.80;99.90
56771;DHT22;42641;59.794;17.616;2022-12-13T16:54:28;-9.70;99.90
56771;DHT22;42641;59.794;17.616;2022-12-13T16:56:54;-9.80;99.90
56771;DHT22;42641;59.794;17.616;2022-12-13T16:59:23;-9.80;99.90
56771;DHT22;42641;59.794;17.616;2022-12-13T17:01:51;-9.80;99.90
56771;DHT22;42641;59.794;17.616;2022-12-13T17:04:20;-9.80;99.90
56771;DHT22;42641;59.794;17.616;2022-12-13T17:06:51;-9.80;99.90
56771;DHT22;42641;59.794;17.616;2022-12-13T17:09:17;-9.80;99.90
56771;DHT22;42641;59.794;17.616;2022-12-13T17:11:44;-9.80;99.90
56771;DHT22;42641;59.794;17.616;2022-12-13T17:14:10;-9.80;99.90
56771;DHT22;42641;59.794;17.616;2022-12-13T17:16:37;-9.80;99.90
56771;DHT22;42641;59.794;17.616;2022-12-13T17:19:04;-9.80;99.90
56771;DHT22;42641;59.794;17.616;2022-12-13T17:21:31;-9.80;99.90
56771;DHT22;42641;59.794;17.616;2022-12-13T17:24:00;-9.90;99.90
56771;DHT22;42641;59.794;17.616;2022-12-13T17:26:28;-9.90;99.90
56771;DHT22;42641;59.794;17.616;2022-12-13T17:28:55;-9.90;99.90
56771;DHT22;42641;59.794;17.616;2022-12-13T17:31:21;-9.90;99.90
56771;DHT22;42641;59.794;17.616;2022-12-13T17:33:47;-9.90;99.90
56771;DHT22;42641;59.794;17.616;2022-12-13T17:36:14;-9.90;99.90
56771;DHT22;42641;59.794;17.616;2022-12-13T17:38:43;-9.80;99.90
56771;DHT22;42641;59.794;17.616;2022-12-13T17:41:14;-9.90;99.90